Tiempo atmosférico en la estación meteorológica de Andújar, Jaén (193 m.)



Fecha
DESCASC
Temp. máxima en grados centígrados (hora)
DESCASC
Temp. mínima en grados centígrados (hora)
DESCASC
Temp. media en grados centígrados
DESCASC
Racha de viento máxima en m/sg (hora)
DESCASC
Velocidad máxima media en intervalos de 10 minutos(hora)
DESCASC
Precipitaciones diarias en mm
DESCASC
Precipitaciones de 00:00 a 06:00 en mm
DESCASC
Precipitaciones de 06:00 a 12:00 en mm
DESCASC
Precipitaciones de 12:00 a 18:00 en mm
DESCASC
Precipitaciones de 18:00 a 24:00 en mm
DESCASC
16-06-2019 31.1 (18:50) 10.8 (07:10) 21 8.06 (16:20) 4.44 (16:00) 0 0 0 0 0
15-06-2019 31.3 (17:30) 10.8 (07:10) 21 7.22 (00:20) 3.89 (00:30) 0 0 0 0 0
14-06-2019 27 (17:10) 17.6 (07:40) 22.3 12.78 (15:10) 7.22 (14:30) 0 0 0 0 0
13-06-2019 31.4 (16:10) 15.6 (00:00) 23.5 9.17 (16:40) 5.83 (20:40) 0 0 0 0 0
12-06-2019 31.1 (18:00) 11 (00:00) 21.1 8.89 (17:10) 4.72 (20:10) 0 0 0 0 0
11-06-2019 31.2 (17:10) 11.9 (00:00) 21.6 10.28 (16:10) 5.28 (17:00) 0 0 0 0 0
10-06-2019 31.1 (17:10) 11.4 (00:00) 21.3 11.11 (22:10) 6.67 (22:30) 0 0 0 0 0
09-06-2019 31.2 (16:40) 16.2 (00:00) 23.7 11.94 (22:00) 6.39 (22:00) 0 0 0 0 0
08-06-2019 32.5 (16:50) 9.3 (00:00) 20.9 9.17 (23:40) 5.83 (19:20) 0 0 0 0 0
07-06-2019 28.4 (17:10) 14.7 (00:00) 21.5 9.72 (01:50) 6.39 (02:00) 0.1 0 0.1 0 0
06-06-2019 29.8 (16:00) 9.4 (00:00) 19.6 11.39 (18:50) 7.5 (19:10) 0 0 0 0 0
05-06-2019 27.9 (15:30) 15 (00:00) 21.4 10.83 (14:40) 6.39 (01:10) 0 0 0 0 0
04-06-2019 34.2 (16:20) 14.3 (00:00) 24.3 13.61 (18:20) 7.22 (18:20) 0 0 0 0 0
03-06-2019 38.7 (16:40) 15.3 (00:00) 27 8.33 (19:30) 5 (19:30) 0 0 0 0 0
02-06-2019 38.4 (18:00) 13.4 (00:00) 25.9 7.78 (22:20) 4.72 (22:30) 0 0 0 0 0
01-06-2019 37.7 (17:10) 12.8 (00:00) 25.3 9.17 (14:20) 5.56 (21:50) 0 0 0 0 0
31-05-2019 36.7 (15:50) 12.1 (00:00) 24.4 9.72 (15:10) 4.72 (13:20) 0 0 0 0 0
30-05-2019 34.7 (16:40) 13.8 (00:00) 24.3 8.61 (15:20) 3.89 (22:40) 0 0 0 0 0
29-05-2019 34.1 (16:40) 16 (00:00) 25 10 (12:00) 5.56 (11:40) 0 0 0 0 0
28-05-2019 37.1 (15:40) 15.2 (00:00) 26.1 7.78 (00:50) 4.72 (01:00) 0 0 0 0 0
27-05-2019 35.9 (16:10) 11.5 (00:00) 23.7 10 (23:10) 5.83 (23:10) 0 0 0 0 0
26-05-2019 33.1 (16:30) 12.2 (00:00) 22.6 6.39 (14:50) 2.5 (04:20) 0 0 0 0 0
25-05-2019 31.5 (17:30) 13.5 (00:00) 22.5 9.72 (13:50) 3.61 (14:40) 0 0 0 0 0
24-05-2019 31.7 (17:10) 14.7 (00:00) 23.2 9.17 (21:10) 4.72 (00:20) 0 0 0 0 0
23-05-2019 34.4 (16:20) 14.1 (00:00) 24.3 8.89 (17:50) 5.28 (17:50) 0 0 0 0 0
22-05-2019 32.9 (17:10) 11.7 (00:00) 22.3 7.22 (18:50) 4.44 (18:50) 0 0 0 0 0
21-05-2019 30.4 (16:40) 11.3 (07:50) 20.8 8.89 (15:00) 5.28 (00:10) 0 0 0 0 0

Gráficas

Temp. máximas Temp. mínimas Temp. medias Precipitaciones Rachas de viento máximas Velocidades máximas media en intervalos de 10 minutos

Datos horarios

Fecha y hora oficial Temperatura (ºC) Velocidad del viento (km/h) Dirección del viento Racha (km/h) Dirección de racha Precipitación (mm) Presión (hPa) Tendencia (hPa) Humedad (%)
2019-06-19 23:00:00 24.4 9 Sudoeste 13 Oeste 0 989.3 1 34
2019-06-19 22:00:00 26 10 Oeste 17 Oeste 0 988.8 0.4 31
2019-06-19 21:00:00 28.3 12 Sudoeste 25 Oeste 0 988.6 -0.4 28
2019-06-19 20:00:00 30 15 Sudoeste 27 Oeste 0 988.3 -1.4 27
2019-06-19 19:00:00 30.4 11 Sudoeste 26 Sudoeste 0 988.4 -2 26
2019-06-19 18:00:00 31.4 12 Oeste 27 Noroeste 0 989 -2.3 29
2019-06-19 17:00:00 30.6 10 Oeste 27 Oeste 0 989.7 -2.3 30
2019-06-19 16:00:00 29.2 10 Oeste 24 Sudoeste 0 990.4 -2.4 35
2019-06-19 15:00:00 28.4 9 Oeste 24 Oeste 0 991.3 -1.8 41
2019-06-19 14:00:00 25.2 6 Oeste 23 Noroeste 0 992 -1.1 49
2019-06-19 13:00:00 22.9 10 Noroeste 21 Oeste 0 992.8 -0.5 55
2019-06-19 12:00:00 21.5 4 Oeste 11 Noroeste 0 993.1 0 63
2019-06-19 11:00:00 19.6 0 Calma 7 Noroeste 0 993.1 0.5 75
2019-06-19 10:00:00 19 4 Noroeste 13 Noroeste 0 993.3 0.9 81
2019-06-19 09:00:00 18.4 8 Noroeste 16 Oeste 0 993.1 0.8 84
2019-06-19 08:00:00 18 7 Sudoeste 18 Sudoeste 0 992.6 0.5 85
2019-06-19 07:00:00 18 12 Oeste 21 Oeste 0 992.4 0.7 85
2019-06-19 06:00:00 18.2 10 Sudoeste 18 Sudoeste 0 992.3 0.6 84
2019-06-19 05:00:00 17.6 7 Oeste 21 Oeste 0 992.1 0.3 84
2019-06-19 04:00:00 18.8 13 Oeste 19 Oeste 0 991.7 0.1 77
2019-06-19 03:00:00 19.7 13 Oeste 19 Oeste 0 991.7 0.1 73
2019-06-19 02:00:00 19.8 9 Noroeste 24 Noroeste 0 991.8 0.6 68
2019-06-19 01:00:00 21.4 13 Oeste 25 Sudoeste 0 991.6 1.3 61
2019-06-19 00:00:00 22.7 14 Sudoeste 21 Sudoeste 0 991.6 1.7 55
2019-06-18 23:00:00 23.7 9 Sudoeste 22 Oeste 0 991.2 1.6 49
2019-06-18 22:00:00 24.9 15 Oeste 31 Oeste 0 990.3 1.1 44
2019-06-18 21:00:00 26.6 17 Oeste 35 Oeste 0 989.9 0.4 36
2019-06-18 20:00:00 28.5 21 Oeste 36 Oeste 0 989.6 0.1 29
2019-06-18 19:00:00 29.6 20 Oeste 39 Oeste 0 989.2 -0.7 28
2019-06-18 18:00:00 29.8 25 Oeste 42 Oeste 0 989.5 -1 28
2019-06-18 17:00:00 30.1 26 Oeste 42 Noroeste 0 989.5 -1.5 28
2019-06-18 16:00:00 30 25 Oeste 42 Noroeste 0 989.9 -1.7 32
2019-06-18 15:00:00 29.8 19 Oeste 43 Oeste 0 990.5 -1.4 35
2019-06-18 14:00:00 28.4 17 Oeste 31 Oeste 0 991 -0.8 39
2019-06-18 13:00:00 26.6 16 Oeste 28 Oeste 0 991.6 -0.3 42
2019-06-18 12:00:00 25.3 15 Oeste 26 Oeste 0 991.9 0.1 41
2019-06-18 11:00:00 24.5 11 Oeste 25 Oeste 0 991.8 0.4 43
2019-06-18 10:00:00 21.9 8 Noroeste 18 Noroeste 0 991.9 0.8 51
2019-06-18 09:00:00 20.1 7 Oeste 12 Noroeste 0 991.8 1 57
2019-06-18 08:00:00 18.4 0 Calma 9 Sudoeste 0 991.4 0.8 64
2019-06-18 07:00:00 17.6 6 Oeste 10 Sudoeste 0 991.1 0.4 64
2019-06-18 06:00:00 17 0 Calma 6 Oeste 0 990.8 0 62
2019-06-18 05:00:00 17.6 0 Calma 8 Oeste 0 990.6 -0.1 57
2019-06-18 04:00:00 18.8 7 Oeste 9 Oeste 0 990.7 0.2 56
2019-06-18 03:00:00 19.4 6 Oeste 9 Oeste 0 990.8 0.5 54
2019-06-18 02:00:00 20.1 0 Calma 11 Oeste 0 990.7 1 47
2019-06-18 01:00:00 23.2 7 Oeste 22 Oeste 0 990.5 1.8 40
2019-06-18 00:00:00 25.1 14 Oeste 24 Sudoeste 0 990.3 1.9 34
2019-06-17 23:00:00 26.3 14 Sudoeste 22 Sudoeste 0 989.7 1.5 30
2019-06-17 22:00:00 27.7 10 Sudoeste 19 Oeste 0 988.7 0.7 28
2019-06-17 21:00:00 29.7 15 Oeste 28 Oeste 0 988.4 0 25
2019-06-17 20:00:00 31.3 19 Oeste 35 Oeste 0 988.2 -0.8 25
2019-06-17 19:00:00 31.8 15 Noroeste 33 Oeste 0 988 -1.7 25
2019-06-17 18:00:00 33 13 Noroeste 33 Sudoeste 0 988.4 -2.1 24
2019-06-17 17:00:00 34.6 15 Oeste 30 Noroeste 0 989 -2.7 24
2019-06-17 16:00:00 32.7 5 Sudoeste 27 Noroeste 0 989.7 -2.7 24
2019-06-17 15:00:00 31.9 6 Norte 15 Oeste 0 990.5 -2.4 25
2019-06-17 14:00:00 30.9 0 Calma 12 Noroeste 0 991.7 -1.8 30
2019-06-17 13:00:00 28.4 0 Calma 10 Sur 0 992.4 -1.3 31
2019-06-17 12:00:00 27.4 0 Calma 10 Este 0 992.9 -1.3 35
2019-06-17 11:00:00 24.5 3 Sudeste 11 Este 0 993.5 -0.7 42
2019-06-17 10:00:00 22.2 4 Este 9 Sudeste 0 993.7 -0.1 50
2019-06-17 09:00:00 18.2 0 Calma 7 Sudeste 0 994.2 0.7 60
2019-06-17 08:00:00 14.6 0 Calma 5 Este 0 994.2 0.7 68
2019-06-17 07:00:00 12.7 0 Calma 4 Sur 0 993.8 0.2 67
2019-06-17 06:00:00 13.8 0 Calma 4 Sur 0 993.5 -0.4 63
2019-06-17 05:00:00 14.9 0 Calma 7 Oeste 0 993.5 -0.3 59
2019-06-17 04:00:00 16.1 2 Oeste 9 Oeste 0 993.6 0.1 57
2019-06-17 03:00:00 18.8 8 Oeste 15 Oeste 0 993.9 0.9 47
2019-06-17 02:00:00 20.7 8 Oeste 20 Noroeste 0 993.8 1.6 46
2019-06-17 01:00:00 23 12 Sudoeste 23 Oeste 0 993.5 2 41
2019-06-17 00:00:00 23.9 14 Sudoeste 22 Sudoeste 0 993 1.9 37
2019-06-16 23:00:00 24.9 8 Oeste 15 Sudoeste 0 992.2 1.3 36
2019-06-16 22:00:00 25.5 9 Oeste 21 Oeste 0 991.5 0.6 31
2019-06-16 21:00:00 27.9 12 Oeste 28 Oeste 0 991.1 -0.1 29
2019-06-16 20:00:00 29.9 14 Oeste 24 Oeste 0 990.9 -0.5 27
2019-06-16 19:00:00 30.8 12 Oeste 24 Oeste 0 990.9 -0.9 26
2019-06-16 18:00:00 30.7 15 Oeste 26 Noroeste 0 991.2 -1 27
2019-06-16 17:00:00 29.1 16 Oeste 29 Oeste 0 991.4 -1.1 28
2019-06-16 16:00:00 30.9 16 Oeste 23 Oeste 0 991.8 -0.9 26
2019-06-16 15:00:00 28.4 10 Oeste 16 Oeste 0 992.2 -0.7 28
2019-06-16 14:00:00 27.8 9 Oeste 16 Oeste 0 992.5 -0.9 29
2019-06-16 13:00:00 28.2 0 Calma 9 Norte 0 992.7 -0.2 28
2019-06-16 12:00:00 26.6 3 Este 11 Este 0 992.9 -0.2 29
2019-06-16 11:00:00 24.4 0 Calma 8 Sur 0 993.4 0.8 35
2019-06-16 10:00:00 19.9 0 Calma 7 Sudeste 0 992.9 0.7 45
2019-06-16 09:00:00 17 0 Calma 3 Este 0 993.1 1.3 50
2019-06-16 08:00:00 13.3 0 Calma 5 Este 0 992.6 1 56
2019-06-16 07:00:00 10.9 3 Sudeste 4 Sudeste 0 992.2 0.4 60
2019-06-16 06:00:00 11.4 0 Calma 4 Oeste 0 991.8 -0.4 59
2019-06-16 05:00:00 12.7 0 Calma 3 Sudeste 0 991.6 -1.2 54
2019-06-16 04:00:00 13.9 0 Calma 5 Este 0 991.8 -1.3 50
2019-06-16 03:00:00 14.5 0 Calma 3 Sudeste 0 992.2 -0.7 48
2019-06-16 02:00:00 16.4 0 Calma 5 Sudoeste 0 992.8 0.5 46
2019-06-16 01:00:00 18.3 0 Calma 8 Sudeste 0 993.1 1.4 40
2019-06-16 00:00:00 20.7 2 Noroeste 4 Noroeste 0 992.9 1.4 37
2019-06-15 23:00:00 20.8 0 Calma 10 Oeste 0 992.3 1 36
2019-06-15 22:00:00 24.2 7 Sudoeste 10 Oeste 0 991.7 0.5 29
2019-06-15 21:00:00 27.6 6 Oeste 14 Oeste 0 991.5 -0.2 25
2019-06-15 20:00:00 29.2 6 Sudoeste 18 Sudoeste 0 991.3 -1 24
2019-06-15 19:00:00 29.8 9 Oeste 21 Oeste 0 991.2 -1.7 24
2019-06-15 18:00:00 30.4 8 Oeste 23 Oeste 0 991.7 -2 24
2019-06-15 17:00:00 30.5 8 Oeste 19 Oeste 0 992.3 -2.2 24
2019-06-15 16:00:00 28.5 6 Sudoeste 21 Sudoeste 0 992.9 -2 24
2019-06-15 15:00:00 28 4 Sur 18 Sudoeste 0 993.7 -1.7 26
2019-06-15 14:00:00 26.4 7 Sur 24 Sudoeste 0 994.5 -1.2 30
2019-06-15 13:00:00 23 4 Norte 13 Sur 0 994.9 -1.1 34
2019-06-15 12:00:00 23.4 4 Sur 11 Este 0 995.4 -0.6 37
2019-06-15 11:00:00 21.4 3 Nordeste 14 Este 0 995.7 0.1 47
2019-06-15 10:00:00 18.5 3 Sudeste 9 Este 0 996 0.8 57
2019-06-15 09:00:00 15.3 2 Norte 7 Noroeste 0 996 1.1 68
2019-06-15 08:00:00 12.3 0 Calma -- -- 0 995.6 0.9 78
2019-06-15 07:00:00 11 0 Calma 9 Noroeste 0 995.2 0.6 77
2019-06-15 06:00:00 11.5 4 Oeste 7 Oeste 0 994.9 0.1 74
2019-06-15 05:00:00 13.2 4 Sudoeste 11 Oeste 0 994.7 0 65
2019-06-15 04:00:00 14.3 7 Oeste 11 Oeste 0 994.6 0.2 61
2019-06-15 03:00:00 14.8 7 Oeste 16 Oeste 0 994.8 1 58
2019-06-15 02:00:00 16.9 9 Oeste 23 Sudoeste 0 994.7 1.5 52
2019-06-15 01:00:00 17.8 12 Oeste 26 Oeste 0 994.4 2.2 49
2019-06-15 00:00:00 18.9 10 Oeste 26 Oeste 0 993.8 2.6 47
2019-06-14 23:00:00 19.9 15 Oeste 38 Sudoeste 0 993.2 2.5 42
2019-06-14 22:00:00 21.7 19 Sudoeste 32 Sudoeste 0 992.2 1.9 37
2019-06-14 21:00:00 23.1 18 Sudoeste 33 Sudoeste 0 991.2 0.9 33
2019-06-14 20:00:00 24.3 19 Oeste 34 Oeste 0 990.7 0.4 31
2019-06-14 19:00:00 24.8 20 Sudoeste 39 Oeste 0 990.3 -0.3 30
2019-06-14 18:00:00 26.2 20 Oeste 41 Oeste 0 990.3 -0.3 30
2019-06-14 17:00:00 25.9 24 Oeste 41 Oeste 0 990.3 -0.5 30
2019-06-14 16:00:00 25.3 23 Oeste 46 Oeste 0 990.6 -0.3 32
2019-06-14 15:00:00 25.9 21 Oeste 42 Oeste 0 990.6 -0.3 34
2019-06-14 14:00:00 25.2 24 Oeste 43 Oeste 0 990.8 0.1 39
2019-06-14 13:00:00 23.7 21 Oeste 39 Oeste 0 990.9 0.5 44
2019-06-14 12:00:00 22.3 22 Oeste 37 Oeste 0 990.9 0.9 49
2019-06-14 11:00:00 20.9 16 Oeste 33 Oeste 0 990.7 1.6 49
2019-06-14 10:00:00 20.1 16 Oeste 34 Oeste 0 990.4 2.1 51
2019-06-14 09:00:00 18.4 18 Oeste 30 Oeste 0 990 2.1 56
2019-06-14 08:00:00 18 15 Oeste 26 Oeste 0 989.1 1.3 54
2019-06-14 07:00:00 17.7 14 Oeste 22 Oeste 0 988.3 0.5 50
2019-06-14 06:00:00 18.5 9 Oeste 20 Oeste 0 987.9 0.3 47
2019-06-14 05:00:00 18.5 10 Oeste 23 Oeste 0 987.8 0.8 43
2019-06-14 04:00:00 20.2 15 Oeste 29 Oeste 0 987.8 1.3 40
2019-06-14 03:00:00 21.1 16 Oeste 32 Sudoeste 0 987.6 1.5 40
2019-06-14 02:00:00 21.7 17 Oeste 34 Oeste 0 987 1.6 43
2019-06-14 01:00:00 23 23 Sudoeste 36 Oeste 0 986.5 2.2 36
2019-06-14 00:00:00 24.2 16 Oeste 26 Oeste 0 986.1 2.6 34
2019-06-13 23:00:00 24.6 10 Oeste 23 Oeste 0 985.4 2.6 38
2019-06-13 22:00:00 25.3 13 Oeste 26 Oeste 0 984.3 1.7 37
2019-06-13 21:00:00 26.7 19 Oeste 31 Noroeste 0 983.5 0.5 35
2019-06-13 20:00:00 28.3 13 Oeste 27 Oeste 0 982.8 -0.7 34
2019-06-13 19:00:00 29.5 16 Oeste 31 Oeste 0 982.6 -1.4 33
2019-06-13 18:00:00 28.7 17 Oeste 31 Oeste 0 983 -1.8 34
2019-06-13 17:00:00 29.7 11 Oeste 33 Oeste 0 983.5 -1.9 34
2019-06-13 16:00:00 30 3 Oeste 17 Noroeste 0 984 -1.7 34
2019-06-13 15:00:00 28.3 3 Sudoeste 19 Noroeste 0 984.8 -1.5 37
2019-06-13 14:00:00 27.6 3 Norte 15 Este 0 985.4 -1.2 39
2019-06-13 13:00:00 24.9 3 Sudeste 14 Este 0 985.7 -1.2 44
2019-06-13 12:00:00 25.7 4 Sudeste 17 Sudeste 0 986.3 -0.6 45
2019-06-13 11:00:00 23.2 3 Norte 10 Noroeste 0 986.6 -0.1 56
2019-06-13 10:00:00 21 0 Calma 9 Noroeste 0 986.9 0.5 64
2019-06-13 09:00:00 19 0 Calma 6 Sudoeste 0 986.9 0.7 70
2019-06-13 08:00:00 17.8 5 Sudoeste 10 Sudoeste 0 986.7 0.5 73
2019-06-13 07:00:00 15.7 0 Calma 9 Noroeste 0 986.4 0.3 76
2019-06-13 06:00:00 16.8 7 Noroeste 14 Oeste 0 986.2 0.3 73
2019-06-13 05:00:00 17.9 9 Oeste 22 Oeste 0 986.2 0.3 64
2019-06-13 04:00:00 18.6 10 Oeste 19 Oeste 0 986.1 0.5 59
2019-06-13 03:00:00 20 9 Oeste 17 Oeste 0 985.9 1 52
2019-06-13 02:00:00 19.9 7 Noroeste 25 Oeste 0 985.9 1.3 46
2019-06-13 01:00:00 21.8 12 Oeste 19 Oeste 0 985.6 1.5 37
2019-06-13 00:00:00 20.1 4 Noroeste 15 Sudoeste 0 984.9 1.1 36
2019-06-12 23:00:00 24.3 10 Sudoeste 15 Sudoeste 0 984.6 1.1 31
2019-06-12 22:00:00 24.7 9 Oeste 19 Noroeste 0 984.1 0.3 31
2019-06-12 21:00:00 27.1 15 Oeste 27 Noroeste 0 983.8 -0.6 28
2019-06-12 20:00:00 28.4 15 Noroeste 29 Oeste 0 983.5 -1.4 28
2019-06-12 19:00:00 28.5 9 Noroeste 26 Noroeste 0 983.8 -1.8 28
2019-06-12 18:00:00 30 2 Oeste 32 Oeste 0 984.4 -1.7 27
2019-06-12 17:00:00 28.9 12 Oeste 29 Oeste 0 984.9 -2.2 29
2019-06-12 16:00:00 29.3 8 Noroeste 28 Oeste 0 985.6 -2.1 29
2019-06-12 15:00:00 29.2 12 Oeste 29 Oeste 0 986.1 -2.1 28
2019-06-12 14:00:00 27.7 8 Oeste 26 Oeste 0 987.1 -1.1 31
2019-06-12 13:00:00 26.7 13 Noroeste 25 Oeste 0 987.7 -0.5 32
2019-06-12 12:00:00 25.2 9 Oeste 21 Oeste 0 988.2 0 32
2019-06-12 11:00:00 24.6 2 Noroeste 10 Sudeste 0 988.2 0.4 35
2019-06-12 10:00:00 22.6 4 Este 13 Este 0 988.2 1 39
2019-06-12 09:00:00 18.1 0 Calma 4 Sudeste 0 988.2 1.4 46
2019-06-12 08:00:00 13.4 0 Calma 5 Sudeste 0 987.8 1.1 51
2019-06-12 07:00:00 11.7 0 Calma 5 Este 0 987.2 0.6 49
2019-06-12 06:00:00 12.1 3 Este 5 Este 0 986.8 0.3 47
2019-06-12 05:00:00 13.1 2 Oeste 5 Noroeste 0 986.7 -0.2 46
2019-06-12 04:00:00 14.2 0 Calma 6 Este 0 986.6 -0.5 43
2019-06-12 03:00:00 15.4 2 Sudeste 5 Sur 0 986.5 -0.5 40
2019-06-12 02:00:00 16.6 3 Este 7 Sudeste 0 986.9 0.2 38
2019-06-12 01:00:00 18.1 2 Sudeste 12 Sudeste 0 987.1 1.3 33
2019-06-12 00:00:00 21.3 7 Este 15 Este 0 987 2.2 29
2019-06-11 23:00:00 22.7 6 Este 26 Este 0 986.7 2.5 28
2019-06-11 22:00:00 24.1 6 Nordeste 22 Nordeste 0 985.8 1.9 26
2019-06-11 21:00:00 26.6 7 Nordeste 16 Oeste 0 984.8 0.7 24
2019-06-11 20:00:00 28.5 13 Noroeste 22 Noroeste 0 984.2 -0.1 22
2019-06-11 19:00:00 29 12 Oeste 29 Noroeste 0 983.9 -0.8 21
2019-06-11 18:00:00 29.6 11 Noroeste 33 Oeste 0 984.1 -1 21
2019-06-11 17:00:00 30.2 19 Oeste 37 Oeste 0 984.3 -1.4 23
2019-06-11 16:00:00 29.4 19 Oeste 35 Oeste 0 984.7 -1.6 26
2019-06-11 15:00:00 28.9 15 Oeste 33 Oeste 0 985.1 -1.9 28
2019-06-11 14:00:00 28 10 Noroeste 27 Oeste 0 985.7 -1.4 29
2019-06-11 13:00:00 26.4 10 Sudoeste 28 Oeste 0 986.3 -1.4 31
2019-06-11 12:00:00 24.4 13 Noroeste 27 Noroeste 0 987 -0.9 36
2019-06-11 11:00:00 21.3 9 Oeste 19 Noroeste 0 987.1 -0.9 43
2019-06-11 10:00:00 19.7 8 Oeste 18 Oeste 0 987.7 -0.2 57
2019-06-11 09:00:00 17 9 Oeste 19 Oeste 0 987.9 -0.1 70
2019-06-11 08:00:00 14 3 Noroeste 4 Noroeste 0 988 -0.6 80
2019-06-11 07:00:00 12 0 Calma 5 Noroeste 0 987.9 -1.1 84
2019-06-11 06:00:00 12.6 2 Oeste 5 Oeste 0 988 -1.5 80
2019-06-11 05:00:00 13.8 3 Oeste 10 Oeste 0 988.6 -1.3 76
2019-06-11 04:00:00 15.6 6 Oeste 13 Oeste 0 989 -1.1 69
2019-06-11 03:00:00 16.8 6 Oeste 19 Oeste 0 989.5 -0.2 61
2019-06-11 02:00:00 17.9 10 Oeste 22 Oeste 0 989.9 0.7 55
2019-06-11 01:00:00 19.1 10 Oeste 25 Oeste 0 990.1 1.9 50
2019-06-11 00:00:00 20.6 18 Oeste 36 Oeste 0 989.7 2.3 43
2019-06-10 23:00:00 22.7 19 Oeste 40 Sudoeste 0 989.2 1.9 37
2019-06-10 22:00:00 24.5 17 Oeste 33 Oeste 0 988.2 0.5 28
2019-06-10 21:00:00 27.5 12 Oeste 28 Oeste 0 987.4 -0.6 25
2019-06-10 20:00:00 28.9 14 Oeste 30 Oeste 0 987.3 -1.1 24
2019-06-10 19:00:00 29 14 Oeste 30 Oeste 0 987.7 -1.5 24
2019-06-10 18:00:00 29.7 16 Oeste 33 Oeste 0 988 -2.1 24
2019-06-10 17:00:00 29.8 12 Oeste 28 Oeste 0 988.4 -2.6 24
2019-06-10 16:00:00 28.7 9 Oeste 30 Oeste 0 989.2 -2.4 25
2019-06-10 15:00:00 28.6 9 Sudoeste 27 Oeste 0 990.1 -2.1 26
2019-06-10 14:00:00 27.3 8 Oeste 22 Oeste 0 991 -1.5 27
2019-06-10 13:00:00 26.3 9 Oeste 26 Noroeste 0 991.6 -0.9 31
2019-06-10 12:00:00 25.6 9 Oeste 22 Noroeste 0 992.2 -1 36
2019-06-10 11:00:00 23.5 8 Oeste 18 Oeste 0 992.5 -0.1 41
2019-06-10 10:00:00 20.6 5 Oeste 16 Oeste 0 992.5 0.3 47
2019-06-10 09:00:00 17.2 4 Noroeste 6 Noroeste 0 993.2 0.9 60
2019-06-10 08:00:00 13.4 3 Oeste 4 Oeste 0 992.6 -0.1 69
2019-06-10 07:00:00 11.9 0 Calma 3 Sudoeste 0 992.2 -0.7 67
2019-06-10 06:00:00 13 0 Calma 5 Sudoeste 0 992.3 -0.7 64
2019-06-10 05:00:00 13.9 3 Sudoeste 6 Sudoeste 0 992.7 -0.5 59
2019-06-10 04:00:00 14.6 4 Oeste 6 Oeste 0 992.9 -0.3 55
2019-06-10 03:00:00 15.4 0 Calma 12 Noroeste 0 993 0.4 51
2019-06-10 02:00:00 17.1 10 Noroeste 18 Oeste 0 993.2 1.2 47
2019-06-10 01:00:00 19.6 9 Oeste 30 Oeste 0 993.2 2.3 40
2019-06-10 00:00:00 21.3 15 Oeste 31 Oeste 0 992.6 2.6 35
2019-06-09 23:00:00 23 18 Oeste 35 Sudoeste 0 992 2.3 31
2019-06-09 22:00:00 25 23 Oeste 43 Oeste 0 990.9 1.1 27
2019-06-09 21:00:00 27.3 16 Oeste 28 Sudoeste 0 990 0.1 28
2019-06-09 20:00:00 28.5 16 Oeste 29 Oeste 0 989.7 -0.6 29
2019-06-09 19:00:00 29.5 15 Oeste 31 Sudoeste 0 989.8 -1.3 28
2019-06-09 18:00:00 29.8 13 Oeste 32 Oeste 0 989.9 -1.8 28
2019-06-09 17:00:00 30.1 15 Oeste 30 Oeste 0 990.3 -1.7 29
2019-06-09 16:00:00 28.8 14 Oeste 35 Oeste 0 991.1 -1.7 31
2019-06-09 15:00:00 29.4 18 Oeste 30 Oeste 0 991.7 -1.4 33
2019-06-09 14:00:00 27.2 11 Oeste 28 Oeste 0 992 -1.5 35
2019-06-09 13:00:00 26.9 12 Oeste 27 Oeste 0 992.8 -1.1 37
2019-06-09 12:00:00 26.2 12 Oeste 24 Oeste 0 993.1 -0.8 39
2019-06-09 11:00:00 24.1 13 Noroeste 24 Oeste 0 993.5 -0.3 42
2019-06-09 10:00:00 22 9 Oeste 22 Oeste 0 993.9 0.4 47
2019-06-09 09:00:00 19.9 8 Oeste 14 Oeste 0 993.9 0.7 52
2019-06-09 08:00:00 17.4 9 Oeste 13 Sudoeste 0 993.8 0.9 54
2019-06-09 07:00:00 17 0 Calma 5 Norte 0 993.5 0.7 47
2019-06-09 06:00:00 18.8 4 Oeste 18 Oeste 0 993.2 -0.3 44
2019-06-09 05:00:00 19.6 10 Oeste 19 Oeste 0 992.9 -0.5 43
2019-06-09 04:00:00 20.2 10 Oeste 24 Oeste 0 992.8 -0.2 41
2019-06-09 03:00:00 21.8 13 Sudoeste 27 Oeste 0 993.5 0.8 38
2019-06-09 02:00:00 22.8 17 Sudoeste 30 Oeste 0 993.4 1.2 37
2019-06-09 01:00:00 23.3 13 Oeste 26 Sudoeste 0 993 1.9 36
2019-06-09 00:00:00 24.1 19 Sudoeste 33 Sudoeste 0 992.7 2.1 33
2019-06-08 23:00:00 24.8 12 Oeste 30 Sudoeste 0 992.2 2.1 30
2019-06-08 22:00:00 26.2 15 Sudoeste 28 Oeste 0 991.1 1.1 28
2019-06-08 21:00:00 27.3 18 Sudoeste 31 Sudoeste 0 990.6 0.6 25
2019-06-08 20:00:00 28.7 17 Oeste 32 Oeste 0 990.1 -0.4 25
2019-06-08 19:00:00 29.7 19 Oeste 33 Oeste 0 990 -1 24
2019-06-08 18:00:00 31.4 15 Noroeste 33 Noroeste 0 990 -1.5 24
2019-06-08 17:00:00 31.5 12 Noroeste 30 Oeste 0 990.5 -1.7 22
2019-06-08 16:00:00 30.7 14 Noroeste 27 Noroeste 0 991 -1.5 21
2019-06-08 15:00:00 32.3 13 Noroeste 24 Oeste 0 991.5 -1.5 20
2019-06-08 14:00:00 30.3 8 Noroeste 22 Noroeste 0 992.2 -1.5 21
2019-06-08 13:00:00 28.1 6 Noroeste 18 Noroeste 0 992.5 -1 22
2019-06-08 12:00:00 28 2 Este 10 Este 0 993 -0.4 24
2019-06-08 11:00:00 24.1 2 Nordeste 8 Este 0 993.7 0.5 27
2019-06-08 10:00:00 21 3 Noroeste 6 Oeste 0 993.5 0.5 33
2019-06-08 09:00:00 16.5 2 Este 6 Este 0 993.4 0.5 40
2019-06-08 08:00:00 12.1 3 Este 6 Este 0 993.2 0.4 44
2019-06-08 07:00:00 9.5 3 Este 6 Este 0 993 0.2 43
2019-06-08 06:00:00 10.4 3 Este 4 Este 0 992.9 -0.1 41
2019-06-08 05:00:00 11.6 0 Calma 3 Sudeste 0 992.8 -0.2 37
2019-06-08 04:00:00 12.6 0 Calma 6 Sudeste 0 992.8 -0.3 34
2019-06-08 03:00:00 13.3 4 Este 7 Este 0 993 -0.1 30
2019-06-08 02:00:00 17.5 0 Calma 7 Norte 0 993 0.4 25
2019-06-08 01:00:00 17.6 0 Calma 10 Noroeste 0 993.1 1.3 22
2019-06-08 00:00:00 20.8 7 Noroeste 17 Oeste 0 993.1 1.7 20
2019-06-07 23:00:00 21.1 10 Oeste 16 Noroeste 0 992.6 1.4 20
2019-06-07 22:00:00 22.8 12 Oeste 16 Oeste 0 991.8 0.8 18
2019-06-07 21:00:00 25.3 7 Sudoeste 17 Sudoeste 0 991.4 0.1 18
2019-06-07 20:00:00 27 7 Oeste 18 Oeste 0 991.2 -0.4 17
2019-06-07 19:00:00 26.7 5 Noroeste 22 Noroeste 0 991 -1 17
2019-06-07 18:00:00 27.8 7 Oeste 22 Sudoeste 0 991.3 -0.9 19
2019-06-07 17:00:00 27.7 5 Noroeste 21 Noroeste 0 991.6 -1.1 21
2019-06-07 16:00:00 26.2 6 Noroeste 21 Noroeste 0 992 -1.1 22
2019-06-07 15:00:00 25.3 8 Oeste 22 Oeste 0 992.2 -0.9 25
2019-06-07 14:00:00 24.3 10 Oeste 28 Sudoeste 0 992.7 -0.5 30
2019-06-07 13:00:00 21.9 5 Sur 19 Sudoeste 0 993.1 0.2 35
2019-06-07 12:00:00 19.1 4 Oeste 13 Sudoeste 0 993.1 0.9 40
2019-06-07 11:00:00 16.9 4 Sudoeste 16 Norte 0 993.2 1.8 50
2019-06-07 10:00:00 15.9 5 Noroeste 10 Oeste 0 992.9 2.5 60
2019-06-07 09:00:00 15 3 Noroeste 15 Oeste 0.1 992.2 2.3 72
2019-06-07 08:00:00 15 5 Oeste 23 Sudoeste 0 991.4 1.7 91
2019-06-07 07:00:00 16.3 12 Oeste 23 Sudoeste 0 990.4 0.8 77
2019-06-07 06:00:00 16.4 10 Oeste 19 Oeste 0 989.9 0.6 75
2019-06-07 05:00:00 16.2 10 Oeste 23 Sudoeste 0 989.7 0.9 75
2019-06-07 04:00:00 16.1 11 Oeste 30 Oeste 0 989.6 0.7 71
2019-06-07 03:00:00 16.7 19 Oeste 33 Sudoeste 0 989.3 1 63
2019-06-07 02:00:00 17.2 23 Sudoeste 35 Oeste 0 988.8 1.5 56
2019-06-07 01:00:00 18 16 Oeste 33 Sudoeste 0 988.9 2.5 45
2019-06-07 00:00:00 19.5 20 Sudoeste 34 Sudoeste 0 988.3 2.5 35
2019-06-06 23:00:00 20.5 19 Oeste 33 Sudoeste 0 987.3 2.1 29
2019-06-06 22:00:00 22.1 16 Oeste 38 Oeste 0 986.4 1.5 28
2019-06-06 21:00:00 24.3 24 Oeste 37 Oeste 0 985.8 0.6 29
2019-06-06 20:00:00 26.2 26 Oeste 78 Oeste 0 985.2 -0.7 29
2019-06-06 19:00:00 27.9 24 Oeste 41 Oeste 0 984.9 -1.7 28
2019-06-06 18:00:00 28.7 20 Oeste 39 Oeste 0 985.2 -2 28
2019-06-06 17:00:00 29.1 22 Oeste 39 Oeste 0 985.9 -1.9 27
2019-06-06 16:00:00 28.7 20 Oeste 33 Oeste 0 986.6 -2.1 28
2019-06-06 15:00:00 28.2 10 Sudoeste 38 Sudoeste 0 987.2 -2.1 30
2019-06-06 14:00:00 27 6 Oeste 21 Oeste 0 987.8 -2 32
2019-06-06 13:00:00 24.7 8 Oeste 19 Oeste 0 988.7 -1.5 34
2019-06-06 12:00:00 22.6 5 Norte 14 Nordeste 0 989.3 -1.2 39
2019-06-06 11:00:00 21.6 3 Este 13 Sudeste 0 989.8 -0.7 42
2019-06-06 10:00:00 18.3 2 Noroeste 9 Noroeste 0 990.2 -0.2 50
2019-06-06 09:00:00 14.5 5 Noroeste 9 Noroeste 0 990.5 0.3 60
2019-06-06 08:00:00 11.4 0 Calma 6 Este 0 990.5 0.5 67
2019-06-06 07:00:00 9.8 0 Calma 6 Oeste 0 990.4 0.3 67
2019-06-06 06:00:00 10.6 3 Oeste 5 Noroeste 0 990.2 0.2 65
2019-06-06 05:00:00 11.2 0 Calma 3 Oeste 0 990 0 61
2019-06-06 04:00:00 11.4 3 Noroeste 8 Oeste 0 990.1 -0.1 60
2019-06-06 03:00:00 12.3 0 Calma 8 Oeste 0 990 -0.1 51
2019-06-06 02:00:00 13.2 2 Sudeste 5 Este 0 990 0.3 49
2019-06-06 01:00:00 14.9 0 Calma 4 Oeste 0 990.2 1.2 45
2019-06-06 00:00:00 15.6 0 Calma 6 Oeste 0 990.1 1.3 43
2019-06-05 23:00:00 17.1 0 Calma 6 Oeste 0 989.7 1.3 40
2019-06-05 22:00:00 19.2 6 Oeste 12 Noroeste 0 989 0.4 39
2019-06-05 21:00:00 22.3 9 Noroeste 22 Noroeste 0 988.8 0.1 34
2019-06-05 20:00:00 23.7 13 Noroeste 26 Oeste 0 988.4 -0.5 32
2019-06-05 19:00:00 24.5 15 Noroeste 24 Noroeste 0 988.6 -0.5 32
2019-06-05 18:00:00 24.4 12 Noroeste 28 Noroeste 0 988.7 -0.9 31
2019-06-05 17:00:00 25.2 20 Noroeste 34 Noroeste 0 988.9 -1.2 31
2019-06-05 16:00:00 25 14 Oeste 34 Oeste 0 989.1 -1.4 32
2019-06-05 15:00:00 24.7 18 Noroeste 39 Oeste 0 989.6 -1.2 34
2019-06-05 14:00:00 22.9 16 Oeste 37 Oeste 0 990.1 -0.7 38
2019-06-05 13:00:00 21.6 12 Noroeste 32 Oeste 0 990.5 -0.4 42
2019-06-05 12:00:00 21 18 Oeste 34 Sudoeste 0 990.8 0.3 48
2019-06-05 11:00:00 19.3 12 Sudoeste 29 Oeste 0 990.8 0.9 53
2019-06-05 10:00:00 17.4 16 Oeste 26 Oeste 0 990.9 1.9 57
2019-06-05 09:00:00 16.1 20 Oeste 28 Oeste 0 990.5 2.8 60
2019-06-05 08:00:00 15.3 10 Oeste 25 Noroeste 0 989.9 2.9 60
2019-06-05 07:00:00 16.1 20 Oeste 33 Oeste 0 989 2.2 55
2019-06-05 06:00:00 17.8 21 Oeste 35 Oeste 0 987.7 0.9 53
2019-06-05 05:00:00 19.8 15 Oeste 27 Oeste 0 987 0.4 61
2019-06-05 04:00:00 20 15 Oeste 26 Oeste 0 986.8 0.5 61
2019-06-05 03:00:00 20.7 14 Oeste 27 Oeste 0 986.8 0.7 64
2019-06-05 02:00:00 21.1 20 Oeste 35 Sudoeste 0 986.6 1.2 64
2019-06-05 01:00:00 21.6 22 Sudoeste 38 Sudoeste 0 986.3 1.8 64
2019-06-05 00:00:00 22.8 19 Oeste 38 Oeste 0 986.1 2.3 58
2019-06-04 23:00:00 24.2 20 Oeste 41 Sudoeste 0 985.4 1.8 49
2019-06-04 22:00:00 26.2 21 Oeste 41 Oeste 0 984.5 0.4 45
2019-06-04 21:00:00 28.4 24 Sudoeste 38 Sudoeste 0 983.8 -0.6 37
2019-06-04 20:00:00 30.1 23 Oeste 41 Oeste 0 983.6 -1.4 34
2019-06-04 19:00:00 31.1 24 Oeste 49 Oeste 0 984.1 -1.7 31
2019-06-04 18:00:00 32.6 24 Oeste 39 Sudoeste 0 984.4 -2.3 30
2019-06-04 17:00:00 33.4 20 Oeste 38 Oeste 0 985 -2.8 30
2019-06-04 16:00:00 32.6 17 Sudoeste 35 Sudoeste 0 985.8 -2.8 30
2019-06-04 15:00:00 32.1 17 Sudoeste 35 Oeste 0 986.7 -2.3 29
2019-06-04 14:00:00 31.9 14 Sudoeste 32 Oeste 0 987.8 -1.4 28
2019-06-04 13:00:00 30.8 18 Oeste 35 Oeste 0 988.6 -0.8 32
2019-06-04 12:00:00 27.8 9 Oeste 21 Noroeste 0 989 -0.5 38
2019-06-04 11:00:00 24.7 4 Norte 13 Oeste 0 989.2 0 42
2019-06-04 10:00:00 23.6 2 Noroeste 7 Oeste 0 989.4 0.4 46
2019-06-04 09:00:00 19.4 2 Este 5 Este 0 989.5 0.6 53
2019-06-04 08:00:00 15.8 0 Calma 4 Oeste 0 989.2 -0.1 60
2019-06-04 07:00:00 14.6 0 Calma -- -- 0 989 -0.5 55
2019-06-04 06:00:00 15.7 0 Calma 5 Sudoeste 0 988.9 -0.9 50
2019-06-04 05:00:00 17.7 0 Calma 12 Oeste 0 989.3 -0.7 46
2019-06-04 04:00:00 20.1 10 Oeste 17 Oeste 0 989.5 -0.5 40
2019-06-04 03:00:00 22.3 12 Oeste 16 Sudoeste 0 989.8 0.3 38
2019-06-04 02:00:00 24 8 Oeste 28 Oeste 0 990 1.4 34
2019-06-04 01:00:00 25.6 12 Oeste 26 Oeste 0 990 2.1 31
2019-06-04 00:00:00 27.3 15 Oeste 28 Oeste 0 989.5 1.8 27
2019-06-03 23:00:00 28.9 15 Sudoeste 22 Oeste 0 988.6 0.9 25
2019-06-03 22:00:00 30.2 13 Oeste 21 Oeste 0 987.9 0 24
2019-06-03 21:00:00 32.6 14 Oeste 27 Oeste 0 987.7 -0.7 22
2019-06-03 20:00:00 34.5 17 Oeste 30 Oeste 0 987.7 -1.1 22
2019-06-03 19:00:00 36 17 Oeste 30 Oeste 0 987.9 -1.5 21
2019-06-03 18:00:00 37.2 14 Noroeste 30 Oeste 0 988.4 -2 21
2019-06-03 17:00:00 36.9 9 Oeste 26 Oeste 0 988.8 -2.4 20
2019-06-03 16:00:00 37.9 5 Oeste 17 Noroeste 0 989.4 -2.7 22
2019-06-03 15:00:00 35.8 8 Oeste 17 Oeste 0 990.4 -2.3 23
2019-06-03 14:00:00 34.9 4 Sudoeste 17 Oeste 0 991.2 -1.8 26
2019-06-03 13:00:00 32.3 4 Oeste 10 Oeste 0 992.1 -1.3 28
2019-06-03 12:00:00 29.1 3 Nordeste 12 Este 0 992.7 -0.7 31
2019-06-03 11:00:00 27.4 4 Sudeste 9 Este 0 993 -0.1 35
2019-06-03 10:00:00 24.3 0 Calma 8 Este 0 993.4 0.5 41
2019-06-03 09:00:00 20.6 3 Este 6 Este 0 993.4 0.8 47
2019-06-03 08:00:00 16.2 0 Calma 5 Este 0 993.1 0.5 49
2019-06-03 07:00:00 16.3 3 Sudeste 6 Oeste 0 992.9 0.2 44
2019-06-03 06:00:00 17.9 4 Noroeste 11 Noroeste 0 992.6 0 42
2019-06-03 05:00:00 18.3 8 Oeste 12 Noroeste 0 992.6 -0.1 40
2019-06-03 04:00:00 19.5 8 Oeste 11 Oeste 0 992.7 0.3 36
2019-06-03 03:00:00 20.1 8 Oeste 11 Oeste 0 992.6 0.9 35
2019-06-03 02:00:00 20.8 8 Oeste 23 Oeste 0 992.7 2 33
2019-06-03 01:00:00 23.6 13 Oeste 21 Oeste 0 992.4 2.8 31
2019-06-03 00:00:00 22.9 3 Oeste 17 Oeste 0 991.7 2.6 29
2019-06-02 23:00:00 28 10 Oeste 28 Oeste 0 990.7 1.7 25
2019-06-02 22:00:00 31.1 16 Oeste 21 Oeste 0 989.6 0.5 25
2019-06-02 21:00:00 32.1 6 Oeste 9 Oeste 0 989.1 -0.5 24
2019-06-02 20:00:00 35.6 2 Nordeste 12 Sudeste 0 989 -1.1 21
2019-06-02 19:00:00 36.1 5 Este 16 Este 0 989.1 -1.6 21
2019-06-02 18:00:00 36.1 6 Este 15 Sudeste 0 989.6 -1.9 20
2019-06-02 17:00:00 37.8 4 Este 14 Noroeste 0 990.1 -2.5 21
2019-06-02 16:00:00 34.4 5 Noroeste 17 Noroeste 0 990.7 -2.7 23
2019-06-02 15:00:00 35.2 4 Sudeste 12 Este 0 991.5 -2.5 23
2019-06-02 14:00:00 33.2 4 Este 14 Sudeste 0 992.6 -1.8 27
2019-06-02 13:00:00 31.4 3 Sur 15 Sudeste 0 993.4 -1.2 30
2019-06-02 12:00:00 28.6 3 Este 11 Este 0 994 -0.6 33
2019-06-02 11:00:00 25.7 3 Noroeste 9 Norte 0 994.4 0.1 38
2019-06-02 10:00:00 22.4 0 Calma 6 Noroeste 0 994.6 0.8 45
2019-06-02 09:00:00 19 0 Calma 6 Este 0 994.6 1 53
2019-06-02 08:00:00 15.2 3 Este 4 Este 0 994.3 0.9 59
2019-06-02 07:00:00 13.6 0 Calma -- -- 0 993.8 0.2 59
2019-06-02 06:00:00 14.4 0 Calma 5 Sudoeste 0 993.6 -0.1 55
2019-06-02 05:00:00 15.4 0 Calma 3 Noroeste 0 993.4 -0.3 51
2019-06-02 04:00:00 17.9 3 Noroeste 17 Sudoeste 0 993.6 0 44
2019-06-02 03:00:00 21 10 Sudoeste 17 Sudoeste 0 993.7 0.3 38
2019-06-02 02:00:00 22 9 Sudoeste 16 Oeste 0 993.7 0.9 38
2019-06-02 01:00:00 21.8 10 Oeste 15 Noroeste 0 993.6 2.4 38
2019-06-02 00:00:00 22.9 9 Noroeste 11 Noroeste 0 993.4 3.4 36
2019-06-01 23:00:00 24 6 Noroeste 22 Oeste 0 992.8 3.1 32
2019-06-01 22:00:00 27.9 17 Oeste 31 Oeste 0 991.2 1.5 28
2019-06-01 21:00:00 32.3 0 Calma 12 Sur 0 990 -0.1 22
2019-06-01 20:00:00 34.3 5 Sudeste 22 Este 0 989.7 -0.9 21
2019-06-01 19:00:00 35.2 6 Sudeste 23 Sudeste 0 989.7 -1.8 21
2019-06-01 18:00:00 35.8 3 Sudeste 28 Este 0 990.1 -2.2 20
2019-06-01 17:00:00 37.3 7 Este 29 Este 0 990.6 -2.7 21
2019-06-01 16:00:00 36.1 13 Este 33 Este 0 991.5 -2.6 22
2019-06-01 15:00:00 35.3 10 Este 33 Este 0 992.3 -2.4 24
2019-06-01 14:00:00 33.9 7 Este 25 Este 0 993.3 -1.8 26
2019-06-01 13:00:00 32 8 Sudeste 21 Este 0 994.1 -1.2 30
2019-06-01 12:00:00 29.6 6 Este 19 Este 0 994.7 -0.5 34
2019-06-01 11:00:00 27.3 9 Sudeste 21 Este 0 995.1 0.1 39
2019-06-01 10:00:00 24.9 4 Este 10 Sudeste 0 995.3 0.6 48
2019-06-01 09:00:00 19.1 0 Calma 3 Oeste 0 995.2 0.6 57
2019-06-01 08:00:00 14.4 0 Calma 0 Calma 0 995 0.4 65
2019-06-01 07:00:00 12.9 0 Calma -- -- 0 994.7 0.1 65
2019-06-01 06:00:00 13.5 0 Calma 6 Este 0 994.6 0.1 61
2019-06-01 05:00:00 14.8 0 Calma 6 Este 0 994.6 -0.1 58
2019-06-01 04:00:00 16.4 3 Sudeste 8 Este 0 994.6 -0.4 52
2019-06-01 03:00:00 18.4 2 Sudeste 14 Sudoeste 0 994.5 -0.4 47
2019-06-01 02:00:00 22.2 9 Sudoeste 15 Sudoeste 0 994.7 0.8 41
2019-06-01 01:00:00 20.9 6 Oeste 10 Noroeste 0 995 2.7 43
2019-06-01 00:00:00 22.1 8 Noroeste 17 Oeste 0 994.9 3.4 38
2019-05-31 23:00:00 24.2 8 Oeste 24 Oeste 0 993.9 2.5 33
2019-05-31 22:00:00 26.1 4 Sudeste 9 Sudeste 0 992.3 0.5 24
2019-05-31 21:00:00 31.1 4 Sudeste 18 Este 0 991.5 -0.7 20
2019-05-31 20:00:00 33.2 8 Este 21 Este 0 991.4 -1.3 19
2019-05-31 19:00:00 34.1 7 Este 29 Este 0 991.8 -1.6 18
2019-05-31 18:00:00 35.2 6 Este 27 Este 0 992.2 -1.9 18
2019-05-31 17:00:00 35.5 8 Este 30 Sudeste 0 992.7 -2.2 18
2019-05-31 16:00:00 34.7 6 Este 35 Este 0 993.4 -2 18
2019-05-31 15:00:00 34 8 Este 30 Este 0 994.1 -1.6 20
2019-05-31 14:00:00 33.8 9 Este 33 Sudeste 0 994.9 -1.3 22
2019-05-31 13:00:00 31.8 9 Este 28 Sudeste 0 995.4 -1.1 25
2019-05-31 12:00:00 29.5 10 Este 24 Este 0 995.7 -0.8 28
2019-05-31 11:00:00 26.8 14 Este 25 Este 0 996.2 -0.3 35
2019-05-31 10:00:00 24.9 10 Este 18 Este 0 996.5 0.1 45
2019-05-31 09:00:00 19.5 0 Calma 6 Este 0 996.5 0.2 59
2019-05-31 08:00:00 14 0 Calma -- -- 0 996.5 0.2 74
2019-05-31 07:00:00 12.4 0 Calma 4 Sudeste 0 996.4 0 74
2019-05-31 06:00:00 13 0 Calma 4 Sur 0 996.3 -0.4 70
2019-05-31 05:00:00 14 0 Calma 5 Este 0 996.3 -0.7 66
2019-05-31 04:00:00 15.5 0 Calma 5 Sudoeste 0 996.4 -0.7 61
2019-05-31 03:00:00 18.6 3 Norte 13 Sudoeste 0 996.7 -0.3 53
2019-05-31 02:00:00 20.5 8 Sudoeste 16 Oeste 0 997 1.1 49
2019-05-31 01:00:00 19.8 8 Oeste 12 Oeste 0 997.1 3.1 48
2019-05-31 00:00:00 21.6 7 Oeste 22 Noroeste 0 997 3.7 43
2019-05-30 23:00:00 23.9 12 Noroeste 22 Oeste 0 995.9 3 38
2019-05-30 22:00:00 24.9 3 Oeste 7 Este 0 994 0.8 29
2019-05-30 21:00:00 30.1 5 Este 20 Este 0 993.3 -0.4 25
2019-05-30 20:00:00 31.9 10 Este 24 Este 0 992.9 -1.2 24
2019-05-30 19:00:00 32.6 8 Este 28 Este 0 993.2 -1.4 23
2019-05-30 18:00:00 33.3 11 Sudeste 28 Sudeste 0 993.7 -1.6 22
2019-05-30 17:00:00 33.4 13 Sudeste 30 Sudeste 0 994.1 -2 22
2019-05-30 16:00:00 33.2 9 Sudeste 31 Sudeste 0 994.6 -2.2 22
2019-05-30 15:00:00 31.1 6 Este 30 Este 0 995.3 -1.7 23
2019-05-30 14:00:00 30.5 7 Este 21 Este 0 996.1 -1.2 27
2019-05-30 13:00:00 29.5 8 Sudeste 23 Este 0 996.8 -0.6 31
2019-05-30 12:00:00 28.1 5 Este 21 Este 0 997 0 35
2019-05-30 11:00:00 26.2 9 Este 21 Sudeste 0 997.3 0.5 39
2019-05-30 10:00:00 24.3 5 Este 17 Este 0 997.4 1.1 44
2019-05-30 09:00:00 20.4 5 Este 12 Este 0 997 1.5 53
2019-05-30 08:00:00 16.5 3 Este 7 Sudeste 0 996.8 1.4 59
2019-05-30 07:00:00 13.9 2 Sudeste 8 Sudeste 0 996.3 1.2 63
2019-05-30 06:00:00 15 2 Sudeste 6 Este 0 995.5 0.2 56
2019-05-30 05:00:00 15 3 Este 8 Este 0 995.4 0.1 49
2019-05-30 04:00:00 17.4 4 Este 10 Sur 0 995.1 -0.1 44
2019-05-30 03:00:00 18.3 0 Calma 11 Este 0 995.3 0.4 40
2019-05-30 02:00:00 21.3 5 Este 13 Este 0 995.3 0.9 34
2019-05-30 01:00:00 23.1 4 Sudeste 12 Este 0 995.2 1.9 32
2019-05-30 00:00:00 25.3 4 Nordeste 16 Nordeste 0 994.9 2.2 29
2019-05-29 23:00:00 26 4 Nordeste 15 Nordeste 0 994.4 2.4 27
2019-05-29 22:00:00 26.9 4 Nordeste 19 Nordeste 0 993.3 1.4 25
2019-05-29 21:00:00 29.2 5 Nordeste 22 Norte 0 992.7 0.6 23
2019-05-29 20:00:00 31.2 6 Este 20 Norte 0 992 -0.4 21
2019-05-29 19:00:00 31.7 6 Este 24 Sudeste 0 991.9 -0.9 21
2019-05-29 18:00:00 32.7 8 Este 27 Este 0 992.1 -1.1 21
2019-05-29 17:00:00 32.9 4 Norte 25 Norte 0 992.4 -1.3 21
2019-05-29 16:00:00 33 8 Norte 26 Este 0 992.8 -1.3 23
2019-05-29 15:00:00 31.9 7 Este 23 Este 0 993.2 -1.3 24
2019-05-29 14:00:00 30.7 9 Este 33 Sudeste 0 993.7 -0.8 25
2019-05-29 13:00:00 28.4 12 Este 34 Este 0 994.1 -0.6 27
2019-05-29 12:00:00 27.1 20 Este 36 Este 0 994.5 0.3 28
2019-05-29 11:00:00 25.8 13 Este 33 Sudeste 0 994.5 0.8 32
2019-05-29 10:00:00 23.6 17 Este 32 Este 0 994.7 1.7 36
2019-05-29 09:00:00 21.4 6 Este 15 Este 0 994.2 2 40
2019-05-29 08:00:00 17.7 3 Este 8 Este 0 993.7 1.7 47
2019-05-29 07:00:00 16.8 5 Este 11 Este 0 993 1.3 44
2019-05-29 06:00:00 18.1 8 Este 12 Sudeste 0 992.2 0.9 43
2019-05-29 05:00:00 18.3 5 Este 20 Sudeste 0 992 1.1 38
2019-05-29 04:00:00 21.6 5 Este 19 Nordeste 0 991.7 1.5 34
2019-05-29 03:00:00 23 5 Nordeste 18 Nordeste 0 991.3 1.9 32
2019-05-29 02:00:00 20 3 Sudeste 9 Este 0 990.9 2.2 35
2019-05-29 01:00:00 21.4 3 Este 6 Este 0 990.2 3.2 33
2019-05-29 00:00:00 23.2 0 Calma 11 Sudeste 0 989.4 3.1 31
2019-05-28 23:00:00 28 5 Este 21 Nordeste 0 988.7 2.8 27
2019-05-28 22:00:00 26.9 0 Calma 9 Noroeste 0 987 1.4 29
2019-05-28 21:00:00 32 6 Noroeste 18 Noroeste 0 986.3 0.6 25
2019-05-28 20:00:00 34.1 6 Noroeste 17 Noroeste 0 985.9 -0.1 24
2019-05-28 19:00:00 34.7 2 Sudoeste 18 Oeste 0 985.6 -0.8 24
2019-05-28 18:00:00 35.3 7 Oeste 18 Sudeste 0 985.7 -1.1 23
2019-05-28 17:00:00 35.9 5 Sudeste 19 Sudeste 0 986 -1.2 23
2019-05-28 16:00:00 34.7 2 Nordeste 16 Noroeste 0 986.4 -1.2 24
2019-05-28 15:00:00 34 6 Norte 17 Norte 0 986.8 -1 26
2019-05-28 14:00:00 33.6 3 Sudeste 18 Sudeste 0 987.2 -0.8 27
2019-05-28 13:00:00 31.8 9 Este 23 Sudeste 0 987.6 -0.4 31
2019-05-28 12:00:00 30.1 5 Este 13 Sudeste 0 987.8 0.1 35
2019-05-28 11:00:00 27.7 3 Este 14 Este 0 988 0.7 40
2019-05-28 10:00:00 24.5 3 Este 10 Sudeste 0 988 1.4 48
2019-05-28 09:00:00 20.1 3 Este 7 Este 0 987.7 1.1 60
2019-05-28 08:00:00 16.7 0 Calma -- -- 0 987.3 1.2 68
2019-05-28 07:00:00 15.3 0 Calma -- -- 0 986.6 0 68
2019-05-28 06:00:00 16 0 Calma 4 Oeste 0 986.6 0.3 62
2019-05-28 05:00:00 17.8 0 Calma 3 Sudoeste 0 986.1 -0.3 57
2019-05-28 04:00:00 18.8 0 Calma 9 Sudoeste 0 986.6 0.5 51
2019-05-28 03:00:00 19.9 0 Calma 8 Oeste 0 986.3 0.3 46
2019-05-28 02:00:00 22.9 0 Calma 25 Oeste 0 986.4 0.9 38
2019-05-28 01:00:00 26.1 17 Oeste 28 Oeste 0 986.1 1.4 34
2019-05-28 00:00:00 27.4 13 Oeste 36 Oeste 0 986 1.4 32
2019-05-27 23:00:00 28.8 20 Oeste 33 Sudoeste 0 985.5 1.3 31
2019-05-27 22:00:00 29.2 12 Oeste 18 Oeste 0 984.7 0.4 28
2019-05-27 21:00:00 30.2 9 Oeste 18 Sudoeste 0 984.6 0 27
2019-05-27 20:00:00 32.1 14 Oeste 25 Oeste 0 984.2 -1.1 24
2019-05-27 19:00:00 34 16 Oeste 28 Oeste 0 984.3 -1.7 24
2019-05-27 18:00:00 33.9 14 Sudoeste 33 Oeste 0 984.6 -2.3 24
2019-05-27 17:00:00 34 15 Noroeste 31 Noroeste 0 985.3 -2.8 23
2019-05-27 16:00:00 35.2 5 Noroeste 26 Sudoeste 0 986 -2.9 24
2019-05-27 15:00:00 32.5 7 Oeste 19 Oeste 0 986.9 -2.6 25
2019-05-27 14:00:00 32.1 4 Oeste 15 Sudoeste 0 988.1 -1.9 26
2019-05-27 13:00:00 31.3 4 Este 12 Este 0 988.9 -1.5 30
2019-05-27 12:00:00 27 4 Sudeste 11 Sudeste 0 989.5 -0.6 36
2019-05-27 11:00:00 24.7 3 Noroeste 7 Noroeste 0 990 0.1 42
2019-05-27 10:00:00 21.8 0 Calma 8 Sudeste 0 990.4 0.7 47
2019-05-27 09:00:00 17.1 4 Este 8 Este 0 990.1 0.5 54
2019-05-27 08:00:00 13.1 0 Calma 5 Este 0 989.9 0.4 59
2019-05-27 07:00:00 11.8 0 Calma 5 Sudeste 0 989.7 -0.2 57
2019-05-27 06:00:00 13 0 Calma 6 Noroeste 0 989.6 -0.1 53
2019-05-27 05:00:00 14.9 3 Oeste 7 Sudoeste 0 989.5 0.1 49
2019-05-27 04:00:00 15.6 2 Sudeste 12 Oeste 0 989.9 0.1 43
2019-05-27 03:00:00 16.5 3 Noroeste 11 Sudoeste 0 989.7 -0.1 42
2019-05-27 02:00:00 16.3 0 Calma 4 Sudoeste 0 989.4 -0.3 40
2019-05-27 01:00:00 17 0 Calma 5 Oeste 0 989.8 0.8 38
2019-05-27 00:00:00 18.6 0 Calma 4 Este 0 989.8 1.3 33
2019-05-26 23:00:00 21.6 2 Sudeste 7 Sudeste 0 989.7 1.3 29
2019-05-26 22:00:00 22.9 2 Sudoeste 8 Norte 0 989 0.7 26
2019-05-26 21:00:00 29.1 4 Norte 14 Nordeste 0 988.5 -0.2 22
2019-05-26 20:00:00 30.3 5 Nordeste 17 Norte 0 988.4 -0.8 20
2019-05-26 19:00:00 31 2 Norte 20 Norte 0 988.3 -1.4 21
2019-05-26 18:00:00 32 4 Nordeste 18 Este 0 988.7 -1.5 21
2019-05-26 17:00:00 31.1 7 Este 21 Este 0 989.2 -1.9 21
2019-05-26 16:00:00 30.9 9 Norte 21 Noroeste 0 989.7 -2.2 23
2019-05-26 15:00:00 29.8 7 Este 23 Sudeste 0 990.2 -2.1 28
2019-05-26 14:00:00 28 3 Sudeste 19 Sur 0 991.1 -1.7 31
2019-05-26 13:00:00 28.5 6 Sudeste 18 Este 0 991.9 -1.2 34
2019-05-26 12:00:00 26.8 3 Sudeste 15 Este 0 992.3 -1 38
2019-05-26 11:00:00 24.4 6 Este 13 Sudeste 0 992.8 -0.2 42
2019-05-26 10:00:00 21.5 7 Oeste 15 Noroeste 0 993.1 0.8 52
2019-05-26 09:00:00 17.6 3 Noroeste 6 Oeste 0 993.3 1.3 56
2019-05-26 08:00:00 13.3 0 Calma 2 Noroeste 0 993 1 67
2019-05-26 07:00:00 12.4 0 Calma 4 Sur 0 992.3 0.5 65
2019-05-26 06:00:00 14.1 0 Calma 10 Oeste 0 992 0.2 56
2019-05-26 05:00:00 15.2 0 Calma 18 Sudoeste 0 992 0.1 49
2019-05-26 04:00:00 14.9 0 Calma 7 Oeste 0 991.8 0 48
2019-05-26 03:00:00 16.6 5 Sudoeste 9 Oeste 0 991.8 0 43
2019-05-26 02:00:00 17.7 4 Este 7 Este 0 991.9 0.6 40
2019-05-26 01:00:00 19.1 0 Calma 8 Sur 0 991.8 1.2 36
2019-05-26 00:00:00 19.7 2 Sur 7 Sudoeste 0 991.8 1.8 35
2019-05-25 23:00:00 21.7 0 Calma 6 Oeste 0 991.3 1.7 33
2019-05-25 22:00:00 23.6 3 Noroeste 11 Noroeste 0 990.6 1 30
2019-05-25 21:00:00 26.9 6 Norte 21 Noroeste 0 990 0.3 27
2019-05-25 20:00:00 28.2 9 Norte 19 Noroeste 0 989.6 -0.1 26
2019-05-25 19:00:00 28.6 10 Norte 22 Este 0 989.6 -0.5 26
2019-05-25 18:00:00 29.7 7 Norte 21 Noroeste 0 989.7 -1.2 25
2019-05-25 17:00:00 30.3 5 Norte 21 Este 0 989.7 -1.8 27
2019-05-25 16:00:00 28.4 9 Sudeste 27 Sudeste 0 990.1 -1.9 29
2019-05-25 15:00:00 28.6 8 Sudeste 31 Este 0 990.9 -1.3 32
2019-05-25 14:00:00 27.2 4 Este 35 Sudeste 0 991.5 -0.9 34
2019-05-25 13:00:00 25.8 10 Este 27 Este 0 992 -0.1 37
2019-05-25 12:00:00 23.6 8 Este 23 Norte 0 992.2 0.4 39
2019-05-25 11:00:00 23 7 Nordeste 21 Nordeste 0 992.4 1.2 44
2019-05-25 10:00:00 21.3 8 Nordeste 15 Nordeste 0 992.1 1.5 50
2019-05-25 09:00:00 18.7 6 Norte 17 Norte 0 991.8 1.6 60
2019-05-25 08:00:00 17.3 4 Nordeste 11 Norte 0 991.2 1.3 67
2019-05-25 07:00:00 14.4 0 Calma 5 Sudeste 0 990.6 1.2 75
2019-05-25 06:00:00 15.3 0 Calma 11 Este 0 990.2 1 70
2019-05-25 05:00:00 16.2 0 Calma 11 Este 0 989.9 0.9 66
2019-05-25 04:00:00 17.4 3 Este 13 Este 0 989.4 0.5 63
2019-05-25 03:00:00 18.6 4 Sudeste 12 Este 0 989.2 0.7 58
2019-05-25 02:00:00 20.3 5 Este 12 Este 0 989 1.1 52
2019-05-25 01:00:00 21.5 7 Este 19 Este 0 988.9 2.2 46
2019-05-25 00:00:00 22.9 8 Este 17 Este 0 988.5 3.3 44
2019-05-24 23:00:00 24.2 6 Este 19 Sudeste 0 987.9 3.1 38
2019-05-24 22:00:00 25.4 4 Este 33 Norte 0 986.7 2.2 36
2019-05-24 21:00:00 27.8 5 Nordeste 19 Nordeste 0 985.2 0.1 28
2019-05-24 20:00:00 30 6 Norte 17 Norte 0 984.8 -0.8 28
2019-05-24 19:00:00 30.2 6 Oeste 19 Oeste 0 984.5 -1.5 28
2019-05-24 18:00:00 30.8 0 Calma 19 Sudoeste 0 985.1 -1.5 28
2019-05-24 17:00:00 30.8 3 Norte 18 Oeste 0 985.6 -1.6 30
2019-05-24 16:00:00 29.4 7 Este 15 Sudeste 0 986 -1.9 31
2019-05-24 15:00:00 28.6 5 Oeste 21 Sudoeste 0 986.6 -1.9 32
2019-05-24 14:00:00 28.3 4 Oeste 23 Oeste 0 987.2 -1.6 34
2019-05-24 13:00:00 27.1 8 Oeste 26 Oeste 0 987.9 -0.8 38
2019-05-24 12:00:00 25.6 8 Oeste 14 Oeste 0 988.5 0.1 45
2019-05-24 11:00:00 23.7 4 Noroeste 13 Oeste 0 988.8 0 50
2019-05-24 10:00:00 19.3 4 Noroeste 6 Oeste 0 988.7 -0.3 57
2019-05-24 09:00:00 17.3 0 Calma 6 Oeste 0 988.4 -0.7 61
2019-05-24 08:00:00 15.6 3 Noroeste 10 Sudoeste 0 988.8 0 61
2019-05-24 07:00:00 15 0 Calma 4 Oeste 0 989 -0.4 61
2019-05-24 06:00:00 16.3 0 Calma 8 Noroeste 0 989.1 -0.5 55
2019-05-24 05:00:00 17.8 4 Oeste 15 Oeste 0 988.8 -0.7 49
2019-05-24 04:00:00 20.1 7 Oeste 20 Sudoeste 0 989.4 -0.1 43
2019-05-24 03:00:00 20.3 4 Oeste 23 Sudoeste 0 989.6 0.1 39
2019-05-24 02:00:00 23.5 17 Sudoeste 23 Sudoeste 0 989.5 0.2 34
2019-05-24 01:00:00 24.5 12 Sudoeste 26 Sudoeste 0 989.5 0.7 33
2019-05-24 00:00:00 25.3 16 Sudoeste 22 Oeste 0 989.5 0.9 29
2019-05-23 23:00:00 26.3 10 Oeste 20 Oeste 0 989.3 0.8 27
2019-05-23 22:00:00 26.6 10 Sudoeste 13 Sudoeste 0 988.8 0.1 26
2019-05-23 21:00:00 28.4 10 Sudoeste 19 Sudoeste 0 988.6 -0.7 24
2019-05-23 20:00:00 30.6 14 Oeste 26 Oeste 0 988.5 -1.2 23
2019-05-23 19:00:00 31.9 11 Oeste 25 Sudoeste 0 988.7 -1.5 22
2019-05-23 18:00:00 33.2 15 Oeste 32 Oeste 0 989.3 -1.8 22
2019-05-23 17:00:00 33.2 12 Oeste 31 Oeste 0 989.7 -2.1 23
2019-05-23 16:00:00 32.3 12 Sudoeste 29 Oeste 0 990.2 -2.4 24
2019-05-23 15:00:00 30.5 9 Noroeste 21 Noroeste 0 991.1 -1.9 27
2019-05-23 14:00:00 29.5 8 Noroeste 23 Noroeste 0 991.8 -1.7 31
2019-05-23 13:00:00 28.5 6 Noroeste 16 Noroeste 0 992.6 -1.2 34
2019-05-23 12:00:00 27.1 5 Oeste 17 Oeste 0 993 -0.6 37
2019-05-23 11:00:00 25.1 4 Sur 11 Sudoeste 0 993.5 0.2 39
2019-05-23 10:00:00 23 0 Calma 5 Oeste 0 993.8 0.9 47
2019-05-23 09:00:00 19.1 0 Calma 3 Este 0 993.6 0.8 57
2019-05-23 08:00:00 15.3 0 Calma 4 Sudoeste 0 993.3 0.7 65
2019-05-23 07:00:00 14.6 0 Calma 9 Oeste 0 992.9 0.5 61
2019-05-23 06:00:00 16.1 5 Oeste 9 Oeste 0 992.8 0.2 56
2019-05-23 05:00:00 17.1 8 Oeste 10 Oeste 0 992.6 0.1 54
2019-05-23 04:00:00 15.9 2 Oeste 5 Noroeste 0 992.4 0.3 54
2019-05-23 03:00:00 16.4 0 Calma 9 Noroeste 0 992.6 0.9 51
2019-05-23 02:00:00 16.6 7 Noroeste 9 Noroeste 0 992.5 1.4 45
2019-05-23 01:00:00 18.2 3 Oeste 4 Oeste 0 992.1 1.7 42
2019-05-23 00:00:00 19.8 2 Noroeste 13 Oeste 0 991.7 1.7 36
2019-05-22 23:00:00 21.1 5 Oeste 15 Oeste 0 991.1 1.3 30
2019-05-22 22:00:00 25.7 9 Sudoeste 13 Sudoeste 0 990.4 0.6 25
2019-05-22 21:00:00 28 8 Oeste 19 Oeste 0 990 -0.1 23
2019-05-22 20:00:00 30.1 10 Oeste 21 Oeste 0 989.8 -0.5 22
2019-05-22 19:00:00 30.7 8 Oeste 26 Oeste 0 989.8 -0.8 22
2019-05-22 18:00:00 31.1 2 Noroeste 19 Oeste 0 990.1 -1.1 21
2019-05-22 17:00:00 31.2 5 Oeste 20 Sudoeste 0 990.3 -1.4 21
2019-05-22 16:00:00 31.9 5 Noroeste 24 Oeste 0 990.6 -1.8 21
2019-05-22 15:00:00 31.6 11 Oeste 19 Norte 0 991.2 -1.6 22
2019-05-22 14:00:00 29.8 4 Noroeste 14 Noroeste 0 991.7 -1.3 28
2019-05-22 13:00:00 27.7 2 Noroeste 13 Noroeste 0 992.4 -0.7 34
2019-05-22 12:00:00 26.1 2 Sudeste 11 Noroeste 0 992.8 -0.1 38
2019-05-22 11:00:00 23.6 0 Calma 9 Sudoeste 0 993 0.5 46
2019-05-22 10:00:00 21.2 2 Este 10 Nordeste 0 993.1 1.2 54
2019-05-22 09:00:00 17.1 3 Este 8 Sudeste 0 992.9 1.2 66
2019-05-22 08:00:00 13.1 0 Calma 5 Este 0 992.5 0.9 76
2019-05-22 07:00:00 11.7 0 Calma 3 Sudeste 0 991.9 0.3 79
2019-05-22 06:00:00 12.9 0 Calma -- -- 0 991.7 0.2 75
2019-05-22 05:00:00 13.9 0 Calma 3 Sudoeste 0 991.6 0.1 71
2019-05-22 04:00:00 14.8 2 Noroeste 8 Noroeste 0 991.6 1 63
2019-05-22 03:00:00 17.1 7 Noroeste 14 Oeste 0 991.5 1.2 55
2019-05-22 02:00:00 18 3 Sudoeste 12 Oeste 0 991.5 1.6 54
2019-05-22 01:00:00 20.4 11 Oeste 25 Oeste 0 990.6 1.6 47
2019-05-22 00:00:00 21.8 14 Oeste 23 Oeste 0 990.3 1.9 37
2019-05-21 23:00:00 21.5 5 Noroeste 15 Oeste 0 989.9 2 33
2019-05-21 22:00:00 23.7 10 Oeste 17 Oeste 0 989 1.4 29
2019-05-21 21:00:00 25.8 9 Oeste 19 Sudoeste 0 988.4 0.6 27
2019-05-21 20:00:00 27.6 12 Oeste 23 Noroeste 0 987.9 -0.2 25
2019-05-21 19:00:00 28.5 10 Oeste 27 Oeste 0 987.6 -0.9 24
2019-05-21 18:00:00 29.6 9 Oeste 26 Noroeste 0 987.8 -1.1 23
2019-05-21 17:00:00 29.8 6 Sudoeste 28 Oeste 0 988.1 -1.3 24
2019-05-21 16:00:00 28.8 15 Oeste 27 Oeste 0 988.5 -1.3 25
2019-05-21 15:00:00 29.5 10 Noroeste 32 Oeste 0 988.9 -1.3 27
2019-05-21 14:00:00 28.1 13 Oeste 31 Oeste 0 989.4 -1 28
2019-05-21 13:00:00 25 8 Noroeste 19 Oeste 0 989.8 -0.7 29
2019-05-21 12:00:00 24.3 0 Calma 15 Sudoeste 0 990.2 -0.2 36
2019-05-21 11:00:00 20.5 4 Noroeste 15 Noroeste 0 990.4 0.4 45
2019-05-21 10:00:00 19.7 5 Noroeste 16 Noroeste 0 990.5 1 53
2019-05-21 09:00:00 16.3 4 Noroeste 9 Noroeste 0 990.4 1.4 62
2019-05-21 08:00:00 11.8 0 Calma 3 Oeste 0 990 1 74
2019-05-21 07:00:00 11.9 0 Calma 9 Oeste 0 989.5 0.5 68
2019-05-21 06:00:00 14.3 5 Oeste 11 Oeste 0 989 -0.1 58
2019-05-21 05:00:00 14.7 8 Oeste 12 Oeste 0 989 -0.2 54
2019-05-21 04:00:00 16.5 7 Oeste 17 Oeste 0 989 -0.1 47
2019-05-21 03:00:00 17.5 7 Oeste 19 Oeste 0 989.1 0.7 43
2019-05-21 02:00:00 18.6 12 Sudoeste 19 Sudoeste 0 989.2 1.2 41
2019-05-21 01:00:00 19.9 10 Oeste 30 Oeste 0 989.1 2.3 37
2019-05-21 00:00:00 20.5 21 Sudoeste 35 Oeste 0 988.4 2.1 33